sensor_id;sensor_type;location;lat;lon;timestamp;P1;durP1;ratioP1;P2;durP2;ratioP2
73515;SDS011;61763;51.416;5.442;2022-07-19T00:00:45;5.25;;;2.83;;
73515;SDS011;61763;51.416;5.442;2022-07-19T00:03:12;5.68;;;4.18;;
73515;SDS011;61763;51.416;5.442;2022-07-19T00:05:42;6.88;;;4.30;;
73515;SDS011;61763;51.416;5.442;2022-07-19T00:08:08;6.63;;;2.88;;
73515;SDS011;61763;51.416;5.442;2022-07-19T00:10:33;5.80;;;2.50;;
73515;SDS011;61763;51.416;5.442;2022-07-19T00:12:59;7.55;;;4.05;;
73515;SDS011;61763;51.416;5.442;2022-07-19T00:15:24;6.35;;;3.00;;
73515;SDS011;61763;51.416;5.442;2022-07-19T00:17:49;4.68;;;3.00;;
73515;SDS011;61763;51.416;5.442;2022-07-19T00:20:16;8.07;;;4.20;;
73515;SDS011;61763;51.416;5.442;2022-07-19T00:22:45;6.32;;;3.88;;
73515;SDS011;61763;51.416;5.442;2022-07-19T00:25:11;5.07;;;2.75;;
73515;SDS011;61763;51.416;5.442;2022-07-19T00:27:37;6.18;;;4.40;;
73515;SDS011;61763;51.416;5.442;2022-07-19T00:30:06;6.05;;;4.18;;
73515;SDS011;61763;51.416;5.442;2022-07-19T00:32:32;4.15;;;2.70;;
73515;SDS011;61763;51.416;5.442;2022-07-19T00:34:57;6.85;;;4.07;;
73515;SDS011;61763;51.416;5.442;2022-07-19T00:37:23;6.30;;;4.15;;
73515;SDS011;61763;51.416;5.442;2022-07-19T00:39:48;7.88;;;3.20;;
73515;SDS011;61763;51.416;5.442;2022-07-19T00:42:14;5.88;;;3.05;;
73515;SDS011;61763;51.416;5.442;2022-07-19T00:44:40;4.72;;;2.53;;
73515;SDS011;61763;51.416;5.442;2022-07-19T00:47:06;6.50;;;4.88;;
73515;SDS011;61763;51.416;5.442;2022-07-19T00:49:32;5.20;;;4.00;;
73515;SDS011;61763;51.416;5.442;2022-07-19T00:51:57;5.70;;;2.72;;
73515;SDS011;61763;51.416;5.442;2022-07-19T00:54:23;6.32;;;4.18;;
73515;SDS011;61763;51.416;5.442;2022-07-19T00:56:51;6.13;;;2.95;;
73515;SDS011;61763;51.416;5.442;2022-07-19T00:59:17;7.10;;;3.20;;
73515;SDS011;61763;51.416;5.442;2022-07-19T01:01:43;7.85;;;3.28;;
73515;SDS011;61763;51.416;5.442;2022-07-19T01:04:10;7.80;;;2.78;;
73515;SDS011;61763;51.416;5.442;2022-07-19T01:06:36;6.22;;;2.97;;
73515;SDS011;61763;51.416;5.442;2022-07-19T01:09:02;7.50;;;3.92;;
73515;SDS011;61763;51.416;5.442;2022-07-19T01:11:29;7.22;;;3.10;;
73515;SDS011;61763;51.416;5.442;2022-07-19T01:13:54;7.47;;;4.65;;
73515;SDS011;61763;51.416;5.442;2022-07-19T01:16:20;7.13;;;3.15;;
73515;SDS011;61763;51.416;5.442;2022-07-19T01:18:45;6.93;;;4.45;;
73515;SDS011;61763;51.416;5.442;2022-07-19T01:21:20;5.65;;;3.00;;
73515;SDS011;61763;51.416;5.442;2022-07-19T01:23:47;6.70;;;3.72;;
73515;SDS011;61763;51.416;5.442;2022-07-19T01:26:13;7.43;;;4.70;;
73515;SDS011;61763;51.416;5.442;2022-07-19T01:28:38;5.88;;;3.13;;
73515;SDS011;61763;51.416;5.442;2022-07-19T01:31:04;5.50;;;4.35;;
73515;SDS011;61763;51.416;5.442;2022-07-19T01:33:29;6.45;;;2.47;;
73515;SDS011;61763;51.416;5.442;2022-07-19T01:35:55;6.85;;;4.35;;
73515;SDS011;61763;51.416;5.442;2022-07-19T01:38:20;7.50;;;2.95;;
73515;SDS011;61763;51.416;5.442;2022-07-19T01:40:45;4.15;;;2.58;;
73515;SDS011;61763;51.416;5.442;2022-07-19T01:43:11;6.78;;;3.42;;
73515;SDS011;61763;51.416;5.442;2022-07-19T01:45:36;5.05;;;3.78;;
73515;SDS011;61763;51.416;5.442;2022-07-19T01:48:01;7.13;;;3.40;;
73515;SDS011;61763;51.416;5.442;2022-07-19T01:50:27;6.30;;;3.08;;
73515;SDS011;61763;51.416;5.442;2022-07-19T01:52:52;5.13;;;3.28;;
73515;SDS011;61763;51.416;5.442;2022-07-19T01:55:19;7.85;;;4.93;;
73515;SDS011;61763;51.416;5.442;2022-07-19T01:57:45;8.50;;;4.63;;
73515;SDS011;61763;51.416;5.442;2022-07-19T02:00:11;7.03;;;4.20;;
73515;SDS011;61763;51.416;5.442;2022-07-19T02:02:37;11.60;;;4.38;;
73515;SDS011;61763;51.416;5.442;2022-07-19T02:05:02;5.90;;;4.10;;
73515;SDS011;61763;51.416;5.442;2022-07-19T02:07:29;4.00;;;2.40;;
73515;SDS011;61763;51.416;5.442;2022-07-19T02:09:55;4.95;;;2.78;;
73515;SDS011;61763;51.416;5.442;2022-07-19T02:12:22;8.68;;;3.00;;
73515;SDS011;61763;51.416;5.442;2022-07-19T02:14:47;5.28;;;2.90;;
73515;SDS011;61763;51.416;5.442;2022-07-19T02:17:13;5.38;;;4.35;;
73515;SDS011;61763;51.416;5.442;2022-07-19T02:19:38;6.78;;;4.35;;
73515;SDS011;61763;51.416;5.442;2022-07-19T02:22:03;5.82;;;4.72;;
73515;SDS011;61763;51.416;5.442;2022-07-19T02:24:29;5.05;;;2.85;;
73515;SDS011;61763;51.416;5.442;2022-07-19T02:26:54;6.55;;;4.47;;
73515;SDS011;61763;51.416;5.442;2022-07-19T02:29:19;5.57;;;2.92;;
73515;SDS011;61763;51.416;5.442;2022-07-19T02:31:45;6.60;;;3.28;;
73515;SDS011;61763;51.416;5.442;2022-07-19T02:34:10;5.78;;;3.72;;
73515;SDS011;61763;51.416;5.442;2022-07-19T02:36:35;5.47;;;4.10;;
73515;SDS011;61763;51.416;5.442;2022-07-19T02:39:01;4.25;;;2.83;;
73515;SDS011;61763;51.416;5.442;2022-07-19T02:41:26;5.07;;;2.60;;
73515;SDS011;61763;51.416;5.442;2022-07-19T02:43:52;5.22;;;4.18;;
73515;SDS011;61763;51.416;5.442;2022-07-19T02:46:17;6.75;;;4.43;;
73515;SDS011;61763;51.416;5.442;2022-07-19T02:48:42;6.70;;;3.30;;
73515;SDS011;61763;51.416;5.442;2022-07-19T02:51:11;6.85;;;4.38;;
73515;SDS011;61763;51.416;5.442;2022-07-19T02:53:37;5.95;;;3.13;;
73515;SDS011;61763;51.416;5.442;2022-07-19T02:56:03;4.82;;;2.90;;
73515;SDS011;61763;51.416;5.442;2022-07-19T02:58:28;4.90;;;2.83;;
73515;SDS011;61763;51.416;5.442;2022-07-19T03:00:54;4.68;;;3.10;;
73515;SDS011;61763;51.416;5.442;2022-07-19T03:03:19;5.57;;;3.25;;
73515;SDS011;61763;51.416;5.442;2022-07-19T03:06:03;7.30;;;4.13;;
73515;SDS011;61763;51.416;5.442;2022-07-19T03:08:28;6.55;;;3.10;;
73515;SDS011;61763;51.416;5.442;2022-07-19T03:10:54;5.07;;;3.20;;
73515;SDS011;61763;51.416;5.442;2022-07-19T03:13:19;4.38;;;3.00;;
73515;SDS011;61763;51.416;5.442;2022-07-19T03:15:44;5.57;;;4.35;;
73515;SDS011;61763;51.416;5.442;2022-07-19T03:18:10;5.03;;;3.15;;
73515;SDS011;61763;51.416;5.442;2022-07-19T03:20:35;6.20;;;4.53;;
73515;SDS011;61763;51.416;5.442;2022-07-19T03:23:01;7.90;;;3.17;;
73515;SDS011;61763;51.416;5.442;2022-07-19T03:25:27;5.43;;;3.40;;
73515;SDS011;61763;51.416;5.442;2022-07-19T03:27:52;7.85;;;4.15;;
73515;SDS011;61763;51.416;5.442;2022-07-19T03:30:18;10.40;;;4.68;;
73515;SDS011;61763;51.416;5.442;2022-07-19T03:32:43;11.98;;;5.18;;
73515;SDS011;61763;51.416;5.442;2022-07-19T03:35:08;13.85;;;7.22;;
73515;SDS011;61763;51.416;5.442;2022-07-19T03:37:34;14.93;;;6.10;;
73515;SDS011;61763;51.416;5.442;2022-07-19T03:39:59;12.82;;;5.47;;
73515;SDS011;61763;51.416;5.442;2022-07-19T03:42:25;14.93;;;6.35;;
73515;SDS011;61763;51.416;5.442;2022-07-19T03:44:50;11.88;;;5.70;;
73515;SDS011;61763;51.416;5.442;2022-07-19T03:47:15;12.93;;;5.25;;
73515;SDS011;61763;51.416;5.442;2022-07-19T03:49:41;10.27;;;5.30;;
73515;SDS011;61763;51.416;5.442;2022-07-19T03:52:06;10.98;;;6.28;;
73515;SDS011;61763;51.416;5.442;2022-07-19T03:54:32;12.52;;;6.13;;
73515;SDS011;61763;51.416;5.442;2022-07-19T03:56:58;8.82;;;5.70;;
73515;SDS011;61763;51.416;5.442;2022-07-19T03:59:23;13.82;;;5.75;;
73515;SDS011;61763;51.416;5.442;2022-07-19T04:01:49;10.98;;;6.40;;
73515;SDS011;61763;51.416;5.442;2022-07-19T04:04:15;11.65;;;7.85;;
73515;SDS011;61763;51.416;5.442;2022-07-19T04:06:40;10.10;;;4.82;;
73515;SDS011;61763;51.416;5.442;2022-07-19T04:09:06;8.43;;;4.63;;
73515;SDS011;61763;51.416;5.442;2022-07-19T04:11:32;10.55;;;5.78;;
73515;SDS011;61763;51.416;5.442;2022-07-19T04:13:57;8.23;;;5.70;;
73515;SDS011;61763;51.416;5.442;2022-07-19T04:16:22;11.15;;;5.55;;
73515;SDS011;61763;51.416;5.442;2022-07-19T04:18:48;8.13;;;5.80;;
73515;SDS011;61763;51.416;5.442;2022-07-19T04:21:13;7.18;;;4.55;;
73515;SDS011;61763;51.416;5.442;2022-07-19T04:23:38;7.65;;;3.78;;
73515;SDS011;61763;51.416;5.442;2022-07-19T04:26:04;8.38;;;4.10;;
73515;SDS011;61763;51.416;5.442;2022-07-19T04:28:29;7.07;;;3.97;;
73515;SDS011;61763;51.416;5.442;2022-07-19T04:30:55;8.32;;;5.50;;
73515;SDS011;61763;51.416;5.442;2022-07-19T04:33:20;9.10;;;5.30;;
73515;SDS011;61763;51.416;5.442;2022-07-19T04:35:46;6.75;;;5.50;;
73515;SDS011;61763;51.416;5.442;2022-07-19T04:38:11;6.82;;;4.28;;
73515;SDS011;61763;51.416;5.442;2022-07-19T04:40:37;10.30;;;3.88;;
73515;SDS011;61763;51.416;5.442;2022-07-19T04:43:03;9.10;;;5.45;;
73515;SDS011;61763;51.416;5.442;2022-07-19T04:45:30;9.55;;;5.53;;
73515;SDS011;61763;51.416;5.442;2022-07-19T04:47:56;9.13;;;6.90;;
73515;SDS011;61763;51.416;5.442;2022-07-19T04:50:21;11.02;;;6.00;;
73515;SDS011;61763;51.416;5.442;2022-07-19T04:52:46;8.88;;;5.68;;
73515;SDS011;61763;51.416;5.442;2022-07-19T04:55:12;10.68;;;5.13;;
73515;SDS011;61763;51.416;5.442;2022-07-19T04:57:38;8.68;;;4.97;;
73515;SDS011;61763;51.416;5.442;2022-07-19T05:00:04;9.38;;;6.35;;
73515;SDS011;61763;51.416;5.442;2022-07-19T05:02:31;8.57;;;5.00;;
73515;SDS011;61763;51.416;5.442;2022-07-19T05:04:57;9.60;;;8.60;;
73515;SDS011;61763;51.416;5.442;2022-07-19T05:07:22;10.10;;;6.88;;
73515;SDS011;61763;51.416;5.442;2022-07-19T05:09:47;10.75;;;7.95;;
73515;SDS011;61763;51.416;5.442;2022-07-19T05:12:13;9.38;;;7.22;;
73515;SDS011;61763;51.416;5.442;2022-07-19T05:14:38;10.00;;;6.78;;
73515;SDS011;61763;51.416;5.442;2022-07-19T05:17:03;11.40;;;8.52;;
73515;SDS011;61763;51.416;5.442;2022-07-19T05:19:29;10.55;;;7.32;;
73515;SDS011;61763;51.416;5.442;2022-07-19T05:21:54;13.93;;;9.07;;
73515;SDS011;61763;51.416;5.442;2022-07-19T05:24:20;11.98;;;8.25;;
73515;SDS011;61763;51.416;5.442;2022-07-19T05:26:45;10.57;;;8.85;;
73515;SDS011;61763;51.416;5.442;2022-07-19T05:29:10;7.22;;;5.53;;
73515;SDS011;61763;51.416;5.442;2022-07-19T05:31:36;6.15;;;4.82;;
73515;SDS011;61763;51.416;5.442;2022-07-19T05:34:02;13.70;;;8.30;;
73515;SDS011;61763;51.416;5.442;2022-07-19T05:36:27;10.27;;;6.40;;
73515;SDS011;61763;51.416;5.442;2022-07-19T05:38:53;11.63;;;6.38;;
73515;SDS011;61763;51.416;5.442;2022-07-19T05:41:19;16.08;;;7.05;;
73515;SDS011;61763;51.416;5.442;2022-07-19T05:43:47;10.45;;;6.97;;
73515;SDS011;61763;51.416;5.442;2022-07-19T05:46:13;13.90;;;8.63;;
73515;SDS011;61763;51.416;5.442;2022-07-19T05:48:38;12.30;;;7.20;;
73515;SDS011;61763;51.416;5.442;2022-07-19T05:51:03;10.95;;;6.97;;
73515;SDS011;61763;51.416;5.442;2022-07-19T05:53:29;10.00;;;6.25;;
73515;SDS011;61763;51.416;5.442;2022-07-19T05:55:55;12.30;;;9.23;;
73515;SDS011;61763;51.416;5.442;2022-07-19T05:58:20;11.73;;;8.27;;
73515;SDS011;61763;51.416;5.442;2022-07-19T06:00:46;14.73;;;10.00;;
73515;SDS011;61763;51.416;5.442;2022-07-19T06:03:31;12.77;;;9.10;;
73515;SDS011;61763;51.416;5.442;2022-07-19T06:05:56;12.43;;;7.15;;
73515;SDS011;61763;51.416;5.442;2022-07-19T06:08:22;11.43;;;6.63;;
73515;SDS011;61763;51.416;5.442;2022-07-19T06:10:48;11.43;;;8.15;;
73515;SDS011;61763;51.416;5.442;2022-07-19T06:13:13;12.50;;;7.30;;
73515;SDS011;61763;51.416;5.442;2022-07-19T06:15:39;14.02;;;7.82;;
73515;SDS011;61763;51.416;5.442;2022-07-19T06:18:04;15.63;;;10.00;;
73515;SDS011;61763;51.416;5.442;2022-07-19T06:20:29;13.25;;;10.63;;
73515;SDS011;61763;51.416;5.442;2022-07-19T06:22:55;12.40;;;9.07;;
73515;SDS011;61763;51.416;5.442;2022-07-19T06:25:20;13.43;;;7.47;;
73515;SDS011;61763;51.416;5.442;2022-07-19T06:27:46;15.40;;;9.52;;
73515;SDS011;61763;51.416;5.442;2022-07-19T06:30:11;12.88;;;7.47;;
73515;SDS011;61763;51.416;5.442;2022-07-19T06:32:37;13.52;;;8.75;;
73515;SDS011;61763;51.416;5.442;2022-07-19T06:35:02;16.35;;;8.90;;
73515;SDS011;61763;51.416;5.442;2022-07-19T06:37:28;16.27;;;7.93;;
73515;SDS011;61763;51.416;5.442;2022-07-19T06:39:53;14.57;;;9.20;;
73515;SDS011;61763;51.416;5.442;2022-07-19T06:42:18;15.40;;;8.13;;
73515;SDS011;61763;51.416;5.442;2022-07-19T06:44:44;14.98;;;9.77;;
73515;SDS011;61763;51.416;5.442;2022-07-19T06:47:10;13.20;;;7.32;;
73515;SDS011;61763;51.416;5.442;2022-07-19T06:49:35;15.73;;;9.50;;
73515;SDS011;61763;51.416;5.442;2022-07-19T06:52:01;14.45;;;7.90;;
73515;SDS011;61763;51.416;5.442;2022-07-19T06:54:26;14.30;;;7.15;;
73515;SDS011;61763;51.416;5.442;2022-07-19T06:56:52;17.00;;;7.25;;
73515;SDS011;61763;51.416;5.442;2022-07-19T06:59:18;19.05;;;8.32;;
73515;SDS011;61763;51.416;5.442;2022-07-19T07:01:44;15.48;;;6.65;;
73515;SDS011;61763;51.416;5.442;2022-07-19T07:04:09;12.95;;;9.60;;
73515;SDS011;61763;51.416;5.442;2022-07-19T07:06:35;17.20;;;8.32;;
73515;SDS011;61763;51.416;5.442;2022-07-19T07:09:00;14.77;;;6.80;;
73515;SDS011;61763;51.416;5.442;2022-07-19T07:11:27;12.05;;;7.88;;
73515;SDS011;61763;51.416;5.442;2022-07-19T07:13:53;13.82;;;7.00;;
73515;SDS011;61763;51.416;5.442;2022-07-19T07:16:18;11.02;;;6.45;;
73515;SDS011;61763;51.416;5.442;2022-07-19T07:18:44;11.00;;;6.72;;
73515;SDS011;61763;51.416;5.442;2022-07-19T07:21:09;14.20;;;6.30;;
73515;SDS011;61763;51.416;5.442;2022-07-19T07:23:34;13.73;;;7.85;;
73515;SDS011;61763;51.416;5.442;2022-07-19T07:26:00;13.93;;;7.15;;
73515;SDS011;61763;51.416;5.442;2022-07-19T07:28:25;12.68;;;4.72;;
73515;SDS011;61763;51.416;5.442;2022-07-19T07:30:51;14.88;;;7.60;;
73515;SDS011;61763;51.416;5.442;2022-07-19T07:33:16;17.77;;;7.50;;
73515;SDS011;61763;51.416;5.442;2022-07-19T07:35:42;10.23;;;6.57;;
73515;SDS011;61763;51.416;5.442;2022-07-19T07:38:07;12.35;;;4.45;;
73515;SDS011;61763;51.416;5.442;2022-07-19T07:40:33;13.65;;;5.07;;
73515;SDS011;61763;51.416;5.442;2022-07-19T07:42:58;10.52;;;5.07;;
73515;SDS011;61763;51.416;5.442;2022-07-19T07:45:24;9.43;;;4.75;;
73515;SDS011;61763;51.416;5.442;2022-07-19T07:47:50;12.82;;;4.20;;
73515;SDS011;61763;51.416;5.442;2022-07-19T07:50:15;10.63;;;5.50;;
73515;SDS011;61763;51.416;5.442;2022-07-19T07:52:40;9.75;;;3.92;;
73515;SDS011;61763;51.416;5.442;2022-07-19T07:55:06;8.32;;;6.47;;
73515;SDS011;61763;51.416;5.442;2022-07-19T07:57:32;7.55;;;3.67;;
73515;SDS011;61763;51.416;5.442;2022-07-19T07:59:57;10.85;;;3.80;;
73515;SDS011;61763;51.416;5.442;2022-07-19T08:02:23;11.93;;;5.57;;
73515;SDS011;61763;51.416;5.442;2022-07-19T08:04:48;9.27;;;4.03;;
73515;SDS011;61763;51.416;5.442;2022-07-19T08:07:14;5.43;;;3.15;;
73515;SDS011;61763;51.416;5.442;2022-07-19T08:09:39;10.32;;;3.22;;
73515;SDS011;61763;51.416;5.442;2022-07-19T08:12:05;11.48;;;5.93;;
73515;SDS011;61763;51.416;5.442;2022-07-19T08:14:30;7.95;;;3.60;;
73515;SDS011;61763;51.416;5.442;2022-07-19T08:16:56;9.00;;;3.08;;
73515;SDS011;61763;51.416;5.442;2022-07-19T08:19:22;6.32;;;2.78;;
73515;SDS011;61763;51.416;5.442;2022-07-19T08:21:47;6.88;;;3.00;;
73515;SDS011;61763;51.416;5.442;2022-07-19T08:24:12;5.03;;;2.85;;
73515;SDS011;61763;51.416;5.442;2022-07-19T08:26:38;7.40;;;2.47;;
73515;SDS011;61763;51.416;5.442;2022-07-19T08:29:03;5.18;;;3.60;;
73515;SDS011;61763;51.416;5.442;2022-07-19T08:31:28;7.03;;;3.72;;
73515;SDS011;61763;51.416;5.442;2022-07-19T08:33:54;8.27;;;3.28;;
73515;SDS011;61763;51.416;5.442;2022-07-19T08:36:19;8.55;;;4.82;;
73515;SDS011;61763;51.416;5.442;2022-07-19T08:38:45;6.88;;;4.57;;
73515;SDS011;61763;51.416;5.442;2022-07-19T08:41:11;6.13;;;4.65;;
73515;SDS011;61763;51.416;5.442;2022-07-19T08:43:38;6.40;;;3.50;;
73515;SDS011;61763;51.416;5.442;2022-07-19T08:46:04;8.05;;;5.47;;
73515;SDS011;61763;51.416;5.442;2022-07-19T08:48:30;7.70;;;3.30;;
73515;SDS011;61763;51.416;5.442;2022-07-19T08:50:58;9.25;;;5.32;;
73515;SDS011;61763;51.416;5.442;2022-07-19T08:53:24;9.38;;;5.65;;
73515;SDS011;61763;51.416;5.442;2022-07-19T08:55:49;10.45;;;5.78;;
73515;SDS011;61763;51.416;5.442;2022-07-19T08:58:15;9.32;;;3.33;;
73515;SDS011;61763;51.416;5.442;2022-07-19T09:00:40;6.40;;;5.40;;
73515;SDS011;61763;51.416;5.442;2022-07-19T09:03:06;8.13;;;5.82;;
73515;SDS011;61763;51.416;5.442;2022-07-19T09:05:33;7.28;;;2.83;;
73515;SDS011;61763;51.416;5.442;2022-07-19T09:10:36;6.78;;;4.50;;
73515;SDS011;61763;51.416;5.442;2022-07-19T09:13:06;6.55;;;3.17;;
73515;SDS011;61763;51.416;5.442;2022-07-19T09:18:05;11.48;;;4.88;;
73515;SDS011;61763;51.416;5.442;2022-07-19T09:20:50;6.30;;;5.15;;
73515;SDS011;61763;51.416;5.442;2022-07-19T09:23:19;9.95;;;3.45;;
73515;SDS011;61763;51.416;5.442;2022-07-19T09:25:47;14.32;;;6.95;;
73515;SDS011;61763;51.416;5.442;2022-07-19T09:28:24;8.38;;;3.20;;
73515;SDS011;61763;51.416;5.442;2022-07-19T09:30:54;8.15;;;2.90;;
73515;SDS011;61763;51.416;5.442;2022-07-19T09:33:27;9.30;;;5.45;;
73515;SDS011;61763;51.416;5.442;2022-07-19T09:36:01;9.50;;;6.15;;
73515;SDS011;61763;51.416;5.442;2022-07-19T09:38:36;7.90;;;3.17;;
73515;SDS011;61763;51.416;5.442;2022-07-19T09:43:49;7.20;;;2.70;;
73515;SDS011;61763;51.416;5.442;2022-07-19T09:49:11;7.95;;;3.03;;
73515;SDS011;61763;51.416;5.442;2022-07-19T09:51:39;5.25;;;3.10;;
73515;SDS011;61763;51.416;5.442;2022-07-19T09:54:07;11.73;;;3.83;;
73515;SDS011;61763;51.416;5.442;2022-07-19T09:56:35;9.10;;;3.30;;
73515;SDS011;61763;51.416;5.442;2022-07-19T09:59:03;7.10;;;5.28;;
73515;SDS011;61763;51.416;5.442;2022-07-19T10:01:28;6.15;;;4.38;;
73515;SDS011;61763;51.416;5.442;2022-07-19T10:03:55;9.35;;;5.32;;
73515;SDS011;61763;51.416;5.442;2022-07-19T10:06:26;4.40;;;3.17;;
73515;SDS011;61763;51.416;5.442;2022-07-19T10:08:52;8.98;;;5.22;;
73515;SDS011;61763;51.416;5.442;2022-07-19T10:11:19;7.22;;;4.90;;
73515;SDS011;61763;51.416;5.442;2022-07-19T10:13:45;8.43;;;4.93;;
73515;SDS011;61763;51.416;5.442;2022-07-19T10:16:21;8.57;;;3.33;;
73515;SDS011;61763;51.416;5.442;2022-07-19T10:19:15;7.57;;;2.55;;
73515;SDS011;61763;51.416;5.442;2022-07-19T10:21:50;6.15;;;5.55;;
73515;SDS011;61763;51.416;5.442;2022-07-19T10:24:40;4.35;;;2.55;;
73515;SDS011;61763;51.416;5.442;2022-07-19T10:27:18;6.88;;;5.55;;
73515;SDS011;61763;51.416;5.442;2022-07-19T10:32:32;4.78;;;2.63;;
73515;SDS011;61763;51.416;5.442;2022-07-19T10:35:14;8.05;;;5.07;;
73515;SDS011;61763;51.416;5.442;2022-07-19T10:37:41;7.50;;;3.35;;
73515;SDS011;61763;51.416;5.442;2022-07-19T10:40:08;8.45;;;4.25;;
73515;SDS011;61763;51.416;5.442;2022-07-19T10:42:33;6.50;;;4.72;;
73515;SDS011;61763;51.416;5.442;2022-07-19T10:50:21;4.68;;;2.47;;
73515;SDS011;61763;51.416;5.442;2022-07-19T10:52:46;6.13;;;5.53;;
73515;SDS011;61763;51.416;5.442;2022-07-19T10:57:42;8.05;;;5.72;;
73515;SDS011;61763;51.416;5.442;2022-07-19T11:00:18;7.35;;;4.85;;
73515;SDS011;61763;51.416;5.442;2022-07-19T11:02:47;5.50;;;5.00;;
73515;SDS011;61763;51.416;5.442;2022-07-19T11:05:20;7.15;;;2.95;;
73515;SDS011;61763;51.416;5.442;2022-07-19T11:07:47;5.88;;;4.68;;
73515;SDS011;61763;51.416;5.442;2022-07-19T11:10:14;8.32;;;4.80;;
73515;SDS011;61763;51.416;5.442;2022-07-19T11:12:53;6.28;;;4.60;;
73515;SDS011;61763;51.416;5.442;2022-07-19T11:15:20;5.47;;;4.97;;
73515;SDS011;61763;51.416;5.442;2022-07-19T11:17:53;6.68;;;2.20;;
73515;SDS011;61763;51.416;5.442;2022-07-19T11:20:24;4.57;;;2.83;;
73515;SDS011;61763;51.416;5.442;2022-07-19T11:22:54;4.60;;;2.30;;
73515;SDS011;61763;51.416;5.442;2022-07-19T11:25:25;5.28;;;2.60;;
73515;SDS011;61763;51.416;5.442;2022-07-19T11:27:51;5.55;;;4.20;;
73515;SDS011;61763;51.416;5.442;2022-07-19T11:30:16;5.75;;;2.50;;
73515;SDS011;61763;51.416;5.442;2022-07-19T11:32:42;6.10;;;2.53;;
73515;SDS011;61763;51.416;5.442;2022-07-19T11:35:08;7.05;;;2.78;;
73515;SDS011;61763;51.416;5.442;2022-07-19T11:37:37;5.40;;;4.78;;
73515;SDS011;61763;51.416;5.442;2022-07-19T11:40:05;6.85;;;5.13;;
73515;SDS011;61763;51.416;5.442;2022-07-19T11:42:34;4.32;;;2.25;;
73515;SDS011;61763;51.416;5.442;2022-07-19T11:45:24;6.13;;;4.60;;
73515;SDS011;61763;51.416;5.442;2022-07-19T11:47:52;7.47;;;6.05;;
73515;SDS011;61763;51.416;5.442;2022-07-19T11:50:20;4.75;;;2.70;;
73515;SDS011;61763;51.416;5.442;2022-07-19T11:52:47;6.70;;;2.60;;
73515;SDS011;61763;51.416;5.442;2022-07-19T11:55:19;5.80;;;4.85;;
73515;SDS011;61763;51.416;5.442;2022-07-19T11:57:47;6.28;;;3.75;;
73515;SDS011;61763;51.416;5.442;2022-07-19T12:00:13;6.85;;;4.55;;
73515;SDS011;61763;51.416;5.442;2022-07-19T12:05:26;4.72;;;2.00;;
73515;SDS011;61763;51.416;5.442;2022-07-19T12:07:53;7.03;;;4.22;;
73515;SDS011;61763;51.416;5.442;2022-07-19T12:10:31;4.55;;;2.03;;
73515;SDS011;61763;51.416;5.442;2022-07-19T12:13:00;5.53;;;4.07;;
73515;SDS011;61763;51.416;5.442;2022-07-19T12:18:04;5.55;;;2.20;;
73515;SDS011;61763;51.416;5.442;2022-07-19T12:20:30;10.00;;;4.35;;
73515;SDS011;61763;51.416;5.442;2022-07-19T12:22:55;5.75;;;2.20;;
73515;SDS011;61763;51.416;5.442;2022-07-19T12:25:37;5.43;;;4.03;;
73515;SDS011;61763;51.416;5.442;2022-07-19T12:28:03;4.97;;;2.42;;
73515;SDS011;61763;51.416;5.442;2022-07-19T12:30:29;3.33;;;2.90;;
73515;SDS011;61763;51.416;5.442;2022-07-19T12:33:05;5.15;;;2.08;;
73515;SDS011;61763;51.416;5.442;2022-07-19T12:35:45;5.30;;;2.47;;
73515;SDS011;61763;51.416;5.442;2022-07-19T12:38:13;6.03;;;1.85;;
73515;SDS011;61763;51.416;5.442;2022-07-19T12:40:42;5.47;;;2.42;;
73515;SDS011;61763;51.416;5.442;2022-07-19T12:43:08;6.05;;;4.15;;
73515;SDS011;61763;51.416;5.442;2022-07-19T12:45:39;9.98;;;2.78;;
73515;SDS011;61763;51.416;5.442;2022-07-19T12:48:08;5.45;;;2.33;;
73515;SDS011;61763;51.416;5.442;2022-07-19T12:50:40;6.78;;;2.38;;
73515;SDS011;61763;51.416;5.442;2022-07-19T12:53:08;4.05;;;2.22;;
73515;SDS011;61763;51.416;5.442;2022-07-19T12:55:36;5.60;;;3.17;;
73515;SDS011;61763;51.416;5.442;2022-07-19T12:58:04;8.75;;;2.65;;
73515;SDS011;61763;51.416;5.442;2022-07-19T13:00:30;10.15;;;4.45;;
73515;SDS011;61763;51.416;5.442;2022-07-19T13:02:57;6.88;;;5.63;;
73515;SDS011;61763;51.416;5.442;2022-07-19T13:05:23;7.47;;;2.80;;
73515;SDS011;61763;51.416;5.442;2022-07-19T13:07:49;7.25;;;4.78;;
73515;SDS011;61763;51.416;5.442;2022-07-19T13:10:15;6.85;;;2.80;;
73515;SDS011;61763;51.416;5.442;2022-07-19T13:12:41;6.28;;;5.03;;
73515;SDS011;61763;51.416;5.442;2022-07-19T13:15:07;7.13;;;5.15;;
73515;SDS011;61763;51.416;5.442;2022-07-19T13:17:33;10.02;;;7.47;;
73515;SDS011;61763;51.416;5.442;2022-07-19T13:19:59;10.75;;;5.82;;
73515;SDS011;61763;51.416;5.442;2022-07-19T13:22:24;9.93;;;4.82;;
73515;SDS011;61763;51.416;5.442;2022-07-19T13:24:50;9.55;;;4.93;;
73515;SDS011;61763;51.416;5.442;2022-07-19T13:27:16;7.43;;;5.97;;
73515;SDS011;61763;51.416;5.442;2022-07-19T13:32:07;7.45;;;3.08;;
73515;SDS011;61763;51.416;5.442;2022-07-19T13:34:35;6.43;;;4.88;;
73515;SDS011;61763;51.416;5.442;2022-07-19T13:37:01;4.65;;;2.95;;
73515;SDS011;61763;51.416;5.442;2022-07-19T13:39:27;5.80;;;5.22;;
73515;SDS011;61763;51.416;5.442;2022-07-19T13:41:52;9.15;;;5.15;;
73515;SDS011;61763;51.416;5.442;2022-07-19T13:44:18;6.88;;;5.10;;
73515;SDS011;61763;51.416;5.442;2022-07-19T13:46:43;7.78;;;5.30;;
73515;SDS011;61763;51.416;5.442;2022-07-19T13:49:08;6.10;;;2.92;;
73515;SDS011;61763;51.416;5.442;2022-07-19T13:51:34;5.30;;;2.65;;
73515;SDS011;61763;51.416;5.442;2022-07-19T13:53:59;8.68;;;2.78;;
73515;SDS011;61763;51.416;5.442;2022-07-19T13:56:25;5.68;;;3.10;;
73515;SDS011;61763;51.416;5.442;2022-07-19T13:58:50;8.95;;;5.38;;
73515;SDS011;61763;51.416;5.442;2022-07-19T14:01:16;5.00;;;2.97;;
73515;SDS011;61763;51.416;5.442;2022-07-19T14:03:42;3.58;;;2.50;;
73515;SDS011;61763;51.416;5.442;2022-07-19T14:06:08;7.43;;;2.83;;
73515;SDS011;61763;51.416;5.442;2022-07-19T14:08:33;9.38;;;3.00;;
73515;SDS011;61763;51.416;5.442;2022-07-19T14:10:59;4.40;;;2.60;;
73515;SDS011;61763;51.416;5.442;2022-07-19T14:13:24;8.02;;;5.20;;
73515;SDS011;61763;51.416;5.442;2022-07-19T14:15:50;7.07;;;4.35;;
73515;SDS011;61763;51.416;5.442;2022-07-19T14:18:16;7.07;;;5.05;;
73515;SDS011;61763;51.416;5.442;2022-07-19T14:20:42;5.65;;;2.13;;
73515;SDS011;61763;51.416;5.442;2022-07-19T14:23:11;5.40;;;4.00;;
73515;SDS011;61763;51.416;5.442;2022-07-19T14:25:38;6.25;;;2.53;;
73515;SDS011;61763;51.416;5.442;2022-07-19T14:28:04;6.38;;;4.50;;
73515;SDS011;61763;51.416;5.442;2022-07-19T14:30:30;4.50;;;2.42;;
73515;SDS011;61763;51.416;5.442;2022-07-19T14:32:56;3.97;;;2.22;;
73515;SDS011;61763;51.416;5.442;2022-07-19T14:35:21;6.85;;;6.07;;
73515;SDS011;61763;51.416;5.442;2022-07-19T14:37:47;5.00;;;3.75;;
73515;SDS011;61763;51.416;5.442;2022-07-19T14:40:13;12.52;;;4.38;;
73515;SDS011;61763;51.416;5.442;2022-07-19T14:42:39;6.43;;;2.67;;
73515;SDS011;61763;51.416;5.442;2022-07-19T14:45:05;3.85;;;2.08;;
73515;SDS011;61763;51.416;5.442;2022-07-19T14:47:32;4.38;;;2.28;;
73515;SDS011;61763;51.416;5.442;2022-07-19T14:49:58;6.95;;;2.63;;
73515;SDS011;61763;51.416;5.442;2022-07-19T14:52:23;5.68;;;2.08;;
73515;SDS011;61763;51.416;5.442;2022-07-19T14:54:49;6.90;;;2.58;;
73515;SDS011;61763;51.416;5.442;2022-07-19T14:57:15;6.05;;;2.47;;
73515;SDS011;61763;51.416;5.442;2022-07-19T14:59:40;9.45;;;4.82;;
73515;SDS011;61763;51.416;5.442;2022-07-19T15:02:06;8.25;;;2.15;;
73515;SDS011;61763;51.416;5.442;2022-07-19T15:04:33;3.97;;;1.75;;
73515;SDS011;61763;51.416;5.442;2022-07-19T15:06:59;4.78;;;2.40;;
73515;SDS011;61763;51.416;5.442;2022-07-19T15:09:24;5.00;;;2.42;;